createdAt,value
2019-04-16T00:02:51.379Z,4.18
2019-04-16T00:06:04.424Z,4.15
2019-04-16T00:09:24.706Z,4.10
2019-04-16T00:12:31.479Z,4.07
2019-04-16T00:15:33.346Z,4.02
2019-04-16T00:18:35.351Z,4.01
2019-04-16T00:21:48.387Z,3.97
2019-04-16T00:24:50.449Z,3.95
2019-04-16T00:27:52.319Z,3.94
2019-04-16T00:30:54.234Z,3.92
2019-04-16T00:33:56.111Z,3.89
2019-04-16T00:36:58.016Z,3.86
2019-04-16T00:39:59.947Z,3.82
2019-04-16T00:43:02.040Z,3.77
2019-04-16T00:46:08.052Z,3.74
2019-04-16T00:49:09.155Z,3.71
2019-04-16T00:52:11.071Z,3.69
2019-04-16T00:55:14.578Z,3.66
2019-04-16T00:58:19.485Z,3.62
2019-04-16T01:01:20.820Z,3.60
2019-04-16T01:04:22.761Z,3.54
2019-04-16T01:07:24.699Z,3.30
2019-04-16T01:10:26.590Z,3.08
2019-04-16T01:13:28.635Z,2.86
2019-04-16T01:16:33.002Z,2.77
2019-04-16T01:19:34.466Z,2.71
2019-04-16T01:22:36.346Z,2.67
2019-04-16T01:25:38.318Z,2.64
2019-04-16T01:28:50.805Z,2.61
2019-04-16T01:32:00.711Z,2.53
2019-04-16T01:35:06.264Z,2.51
2019-04-16T01:38:16.008Z,2.43
2019-04-16T01:41:21.674Z,2.35
2019-04-16T01:44:23.076Z,2.31
2019-04-16T01:47:25.060Z,2.28
2019-04-16T01:50:27.116Z,2.17
2019-04-16T01:53:29.012Z,2.10
2019-04-16T01:56:31.023Z,2.01
2019-04-16T01:59:35.618Z,1.98
2019-04-16T02:02:36.844Z,1.95
2019-04-16T02:05:38.726Z,1.92
2019-04-16T02:08:40.702Z,1.86
2019-04-16T02:11:42.559Z,1.78
2019-04-16T02:14:44.585Z,1.71
2019-04-16T02:17:46.540Z,1.66
2019-04-16T02:20:48.443Z,1.64
2019-04-16T02:23:50.418Z,1.61
2019-04-16T02:26:54.802Z,1.58
2019-04-16T02:29:58.513Z,1.56
2019-04-16T02:33:00.537Z,1.60
2019-04-16T02:36:02.753Z,1.62
2019-04-16T02:39:07.307Z,1.66
2019-04-16T02:42:09.236Z,1.69
2019-04-16T02:45:12.382Z,1.71
2019-04-16T02:48:16.646Z,1.71
2019-04-16T02:51:29.114Z,1.69
2019-04-16T02:54:34.476Z,1.63
2019-04-16T02:57:44.616Z,1.58
2019-04-16T03:00:50.474Z,1.49
2019-04-16T03:04:02.995Z,1.39
2019-04-16T03:07:05.002Z,1.34
2019-04-16T03:10:12.286Z,1.30
2019-04-16T03:13:11.625Z,1.28
2019-04-16T03:16:21.226Z,1.25
2019-04-16T03:19:25.075Z,1.21
2019-04-16T03:22:26.981Z,1.16
2019-04-16T03:25:29.625Z,1.10
2019-04-16T03:28:31.661Z,1.04
2019-04-16T03:31:33.560Z,1.04
2019-04-16T03:34:35.465Z,1.03
2019-04-16T03:37:37.408Z,1.06
2019-04-16T03:40:39.348Z,1.05
2019-04-16T03:43:41.344Z,1.03
2019-04-16T03:46:45.970Z,1.01
2019-04-16T03:49:47.199Z,0.98
2019-04-16T03:52:49.200Z,0.96
2019-04-16T03:55:51.179Z,0.91
2019-04-16T03:58:54.110Z,0.94
2019-04-16T04:01:56.058Z,0.97
2019-04-16T04:05:01.664Z,1.01
2019-04-16T04:08:02.238Z,1.08
2019-04-16T04:11:09.057Z,1.26
2019-04-16T04:14:08.026Z,1.66
2019-04-16T04:17:10.350Z,2.20
2019-04-16T04:20:14.666Z,2.78
2019-04-16T04:23:17.186Z,3.30
2019-04-16T04:26:19.460Z,3.87
2019-04-16T04:29:24.774Z,4.46
2019-04-16T04:32:25.343Z,5.07
2019-04-16T04:35:27.258Z,5.48
2019-04-16T04:38:29.237Z,5.17
2019-04-16T04:41:31.773Z,5.44
2019-04-16T04:44:36.949Z,6.18
2019-04-16T04:47:37.702Z,6.87
2019-04-16T04:50:39.609Z,7.59
2019-04-16T04:53:41.548Z,8.22
2019-04-16T04:56:43.436Z,8.86
2019-04-16T04:59:45.473Z,9.40
2019-04-16T05:02:48.382Z,9.88
2019-04-16T05:05:53.370Z,10.37
2019-04-16T05:08:57.576Z,10.75
2019-04-16T05:11:59.881Z,11.09
2019-04-16T05:15:03.900Z,11.60
2019-04-16T05:18:06.130Z,11.84
2019-04-16T05:21:09.684Z,11.99
2019-04-16T05:24:11.993Z,12.18
2019-04-16T05:27:13.906Z,12.51
2019-04-16T05:30:20.420Z,12.71
2019-04-16T05:33:19.827Z,12.80
2019-04-16T05:36:22.126Z,13.41
2019-04-16T05:39:28.371Z,13.91
2019-04-16T05:42:30.274Z,14.19
2019-04-16T05:45:34.531Z,14.57
2019-04-16T05:48:36.509Z,14.68
2019-04-16T05:51:38.695Z,15.03
2019-04-16T05:55:01.574Z,15.18
2019-04-16T05:58:04.006Z,15.28
2019-04-16T06:01:13.115Z,15.75
2019-04-16T06:04:14.453Z,16.03
2019-04-16T06:07:16.384Z,16.23
2019-04-16T06:10:19.197Z,16.76
2019-04-16T06:13:29.352Z,16.79
2019-04-16T06:16:53.403Z,16.72
2019-04-16T06:20:01.916Z,17.25
2019-04-16T06:23:06.933Z,17.30
2019-04-16T06:26:27.588Z,17.05
2019-04-16T06:29:47.113Z,17.22
2019-04-16T06:32:51.393Z,17.12
2019-04-16T06:35:55.442Z,17.51
2019-04-16T06:39:01.982Z,17.89
2019-04-16T06:42:22.505Z,18.26
2019-04-16T06:45:28.115Z,18.46
2019-04-16T06:48:49.673Z,18.42
2019-04-16T06:51:53.565Z,18.27
2019-04-16T06:55:06.558Z,18.73
2019-04-16T06:58:12.587Z,18.56
2019-04-16T07:01:37.341Z,19.06
2019-04-16T07:04:42.781Z,19.10
2019-04-16T07:07:47.022Z,19.47
2019-04-16T07:10:56.583Z,19.32
2019-04-16T07:13:58.610Z,19.44
2019-04-16T07:17:00.904Z,19.67
2019-04-16T07:20:06.703Z,19.69
2019-04-16T07:23:08.774Z,19.97
2019-04-16T07:26:13.861Z,19.99
2019-04-16T07:29:16.437Z,19.70
2019-04-16T07:32:35.653Z,19.35
2019-04-16T07:35:48.600Z,19.71
2019-04-16T07:39:05.020Z,19.66
2019-04-16T07:42:14.127Z,19.50
2019-04-16T07:45:35.665Z,19.16
2019-04-16T07:48:45.372Z,19.08
2019-04-16T07:51:55.246Z,19.16
2019-04-16T07:54:59.063Z,18.43
2019-04-16T07:58:01.093Z,18.19
2019-04-16T08:01:03.259Z,17.81
2019-04-16T08:04:05.232Z,17.62
2019-04-16T08:07:07.182Z,17.43
2019-04-16T08:10:09.742Z,17.34
2019-04-16T08:13:19.170Z,17.15
2019-04-16T08:16:21.165Z,16.81
2019-04-16T08:19:36.046Z,15.93
2019-04-16T08:22:27.126Z,15.81
2019-04-16T08:25:33.907Z,15.85
2019-04-16T08:28:37.300Z,15.81
2019-04-16T08:31:44.487Z,15.94
2019-04-16T08:34:44.936Z,16.06
2019-04-16T08:37:49.128Z,16.01
2019-04-16T08:40:50.935Z,15.29
2019-04-16T08:43:52.913Z,14.62
2019-04-16T08:46:54.936Z,14.88
2019-04-16T08:49:57.555Z,14.54
2019-04-16T08:52:59.477Z,14.41
2019-04-16T08:56:01.532Z,14.43
2019-04-16T08:59:03.407Z,14.47
2019-04-16T09:02:05.485Z,14.47
2019-04-16T09:05:11.322Z,14.11
2019-04-16T09:08:22.768Z,13.82
2019-04-16T09:11:24.813Z,14.09
2019-04-16T09:14:28.619Z,14.09
2019-04-16T09:17:32.378Z,14.12
2019-04-16T09:20:37.783Z,13.92
2019-04-16T09:23:39.761Z,13.91
2019-04-16T09:26:43.861Z,13.78
2019-04-16T09:29:54.075Z,13.80
2019-04-16T09:33:00.719Z,13.77
2019-04-16T09:36:06.591Z,13.81
2019-04-16T09:39:16.592Z,13.70
2019-04-16T09:42:19.270Z,13.69
2019-04-16T09:45:24.279Z,13.55
2019-04-16T09:48:25.214Z,13.56
2019-04-16T09:51:27.232Z,13.49
2019-04-16T09:54:29.153Z,13.73
2019-04-16T09:57:32.429Z,13.71
2019-04-16T10:00:39.515Z,13.56
2019-04-16T10:03:43.104Z,13.63
2019-04-16T10:06:45.060Z,13.65
2019-04-16T10:09:46.974Z,13.78
2019-04-16T10:12:48.908Z,13.93
2019-04-16T10:15:50.820Z,13.83
2019-04-16T10:18:52.771Z,13.55
2019-04-16T10:21:54.829Z,13.78
2019-04-16T10:25:07.861Z,13.68
2019-04-16T10:28:14.613Z,13.78
2019-04-16T10:31:18.426Z,13.84
2019-04-16T10:34:20.535Z,13.78
2019-04-16T10:37:22.443Z,13.78
2019-04-16T10:40:26.527Z,13.83
2019-04-16T10:43:45.459Z,13.88
2019-04-16T10:46:52.159Z,13.79
2019-04-16T10:49:55.885Z,13.61
2019-04-16T10:53:02.427Z,13.68
2019-04-16T10:56:22.894Z,13.70
2019-04-16T10:59:26.698Z,13.88
2019-04-16T11:02:31.755Z,14.05
2019-04-16T11:05:38.270Z,14.08
2019-04-16T11:08:40.233Z,14.13
2019-04-16T11:11:42.198Z,14.14
2019-04-16T11:14:44.258Z,14.17
2019-04-16T11:17:46.138Z,14.21
2019-04-16T11:20:48.068Z,14.10
2019-04-16T11:23:49.980Z,14.23
2019-04-16T11:26:51.848Z,14.18
2019-04-16T11:29:53.793Z,14.20
2019-04-16T11:32:57.962Z,14.28
2019-04-16T11:36:00.005Z,14.08
2019-04-16T11:39:01.997Z,14.04
2019-04-16T11:42:04.981Z,14.01
2019-04-16T11:45:07.739Z,14.17
2019-04-16T11:48:09.683Z,14.31
2019-04-16T11:51:11.679Z,14.34
2019-04-16T11:54:13.806Z,14.47
2019-04-16T11:57:16.340Z,14.46
2019-04-16T12:00:26.343Z,14.49
2019-04-16T12:03:47.314Z,14.43
2019-04-16T12:06:54.216Z,14.45
2019-04-16T12:10:14.988Z,14.33
2019-04-16T12:13:21.959Z,14.42
2019-04-16T12:16:38.113Z,14.57
2019-04-16T12:19:58.600Z,14.65
2019-04-16T12:23:02.447Z,14.67
2019-04-16T12:26:12.571Z,14.58
2019-04-16T12:29:25.644Z,14.61
2019-04-16T12:32:32.540Z,14.67
2019-04-16T12:35:36.388Z,14.76
2019-04-16T12:38:46.086Z,14.82
2019-04-16T12:41:59.874Z,14.89
2019-04-16T12:45:19.151Z,14.87
2019-04-16T12:48:39.685Z,14.76
2019-04-16T12:51:43.412Z,14.82
2019-04-16T12:55:02.556Z,14.75
2019-04-16T12:58:06.392Z,14.82
2019-04-16T13:01:19.925Z,14.88
2019-04-16T13:04:23.976Z,14.90
2019-04-16T13:07:30.601Z,14.97
2019-04-16T13:10:34.446Z,14.97
2019-04-16T13:13:55.237Z,15.03
2019-04-16T13:17:05.030Z,15.08
2019-04-16T13:20:10.899Z,15.02
2019-04-16T13:23:31.251Z,15.02
2019-04-16T13:26:45.199Z,15.04
2019-04-16T13:29:47.102Z,15.14
2019-04-16T13:32:49.044Z,15.21
2019-04-16T13:35:50.995Z,15.36
2019-04-16T13:38:54.793Z,15.10
2019-04-16T13:41:56.739Z,14.89
2019-04-16T13:45:15.276Z,15.01
2019-04-16T13:48:15.940Z,15.04
2019-04-16T13:51:14.867Z,15.03
2019-04-16T13:54:17.592Z,15.02
2019-04-16T13:57:21.472Z,15.07
2019-04-16T14:00:28.259Z,15.02
2019-04-16T14:03:30.266Z,15.16
2019-04-16T14:06:32.429Z,15.13
2019-04-16T14:09:34.473Z,15.13
2019-04-16T14:12:42.124Z,15.16
2019-04-16T14:15:44.838Z,15.15
2019-04-16T14:18:47.081Z,15.14
2019-04-16T14:21:48.968Z,15.16
2019-04-16T14:24:50.913Z,15.12
2019-04-16T14:27:55.368Z,15.10
2019-04-16T14:30:56.799Z,15.04
2019-04-16T14:34:15.954Z,15.05
2019-04-16T14:37:18.588Z,14.99
2019-04-16T14:40:24.235Z,15.05
2019-04-16T14:43:29.537Z,15.06
2019-04-16T14:46:31.863Z,15.05
2019-04-16T14:49:33.930Z,14.95
2019-04-16T14:52:35.884Z,15.00
2019-04-16T14:55:58.760Z,15.04
2019-04-16T14:59:03.443Z,15.00
2019-04-16T15:02:08.638Z,14.94
2019-04-16T15:05:21.718Z,15.01
2019-04-16T15:08:31.280Z,15.05
2019-04-16T15:11:51.428Z,15.02
2019-04-16T15:14:55.130Z,15.07
2019-04-16T15:18:08.165Z,15.04
2019-04-16T15:21:30.300Z,14.94
2019-04-16T15:24:50.894Z,14.94
2019-04-16T15:28:06.938Z,14.88
2019-04-16T15:31:27.324Z,14.86
2019-04-16T15:34:43.017Z,14.85
2019-04-16T15:37:57.912Z,14.84
2019-04-16T15:41:18.420Z,14.82
2019-04-16T15:44:24.659Z,14.84
2019-04-16T15:47:32.374Z,14.76
2019-04-16T15:50:39.517Z,14.73
2019-04-16T15:53:50.564Z,14.73
2019-04-16T15:57:11.614Z,14.68
2019-04-16T16:00:32.721Z,14.65
2019-04-16T16:03:36.974Z,14.62
2019-04-16T16:06:48.761Z,14.57
2019-04-16T16:09:52.594Z,14.58
2019-04-16T16:12:54.800Z,14.57
2019-04-16T16:15:56.762Z,14.56
2019-04-16T16:18:58.747Z,14.52
2019-04-16T16:22:00.665Z,14.49
2019-04-16T16:25:06.096Z,14.46
2019-04-16T16:28:08.197Z,14.38
2019-04-16T16:31:10.175Z,14.33
2019-04-16T16:34:12.108Z,14.28
2019-04-16T16:37:14.170Z,14.20
2019-04-16T16:40:16.233Z,14.14
2019-04-16T16:43:18.396Z,14.08
2019-04-16T16:46:55.700Z,14.02
2019-04-16T16:49:44.527Z,13.99
2019-04-16T16:52:54.467Z,13.89
2019-04-16T16:55:59.113Z,13.85
2019-04-16T16:59:05.912Z,13.80
2019-04-16T17:02:18.642Z,13.73
2019-04-16T17:05:25.380Z,13.65
2019-04-16T17:08:30.168Z,13.59
2019-04-16T17:11:31.167Z,13.47
2019-04-16T17:14:36.460Z,13.38
2019-04-16T17:17:37.250Z,13.27
2019-04-16T17:20:41.337Z,13.20
2019-04-16T17:23:43.160Z,13.13
2019-04-16T17:26:47.000Z,13.05
2019-04-16T17:29:49.721Z,12.88
2019-04-16T17:32:52.792Z,12.81
2019-04-16T17:35:54.905Z,12.73
2019-04-16T17:38:56.877Z,12.63
2019-04-16T17:42:05.046Z,12.50
2019-04-16T17:45:26.091Z,12.41
2019-04-16T17:48:39.123Z,12.26
2019-04-16T17:51:48.381Z,12.12
2019-04-16T17:54:59.088Z,12.02
2019-04-16T17:58:09.346Z,11.90
2019-04-16T18:01:15.094Z,11.80
2019-04-16T18:04:37.527Z,11.73
2019-04-16T18:07:41.308Z,11.65
2019-04-16T18:10:47.828Z,11.56
2019-04-16T18:13:57.380Z,11.51
2019-04-16T18:17:04.595Z,11.43
2019-04-16T18:20:27.111Z,11.35
2019-04-16T18:23:47.825Z,11.25
2019-04-16T18:27:08.259Z,11.10
2019-04-16T18:30:14.210Z,11.00
2019-04-16T18:33:19.777Z,10.89
2019-04-16T18:36:23.504Z,10.78
2019-04-16T18:39:37.216Z,10.68
2019-04-16T18:42:50.257Z,10.62
2019-04-16T18:46:08.655Z,10.54
2019-04-16T18:49:18.240Z,10.43
2019-04-16T18:52:20.201Z,10.31
2019-04-16T18:55:22.867Z,10.22
2019-04-16T18:58:26.514Z,10.12
2019-04-16T19:01:32.648Z,10.06
2019-04-16T19:04:35.193Z,9.99
2019-04-16T19:07:37.158Z,9.90
2019-04-16T19:10:39.682Z,9.83
2019-04-16T19:13:42.785Z,9.74
2019-04-16T19:16:47.704Z,9.65
2019-04-16T19:19:53.286Z,9.53
2019-04-16T19:22:55.283Z,9.43
2019-04-16T19:25:57.459Z,9.35
2019-04-16T19:28:59.746Z,9.28
2019-04-16T19:32:03.477Z,9.20
2019-04-16T19:35:10.111Z,9.12
2019-04-16T19:38:12.040Z,9.04
2019-04-16T19:41:14.396Z,8.91
2019-04-16T19:44:16.356Z,8.88
2019-04-16T19:47:18.355Z,8.83
2019-04-16T19:50:20.951Z,8.77
2019-04-16T19:53:24.769Z,8.71
2019-04-16T19:56:27.366Z,8.63
2019-04-16T19:59:29.360Z,8.54
2019-04-16T20:02:33.957Z,8.48
2019-04-16T20:05:36.112Z,8.43
2019-04-16T20:08:39.963Z,8.39
2019-04-16T20:11:43.590Z,8.32
2019-04-16T20:14:47.499Z,8.25
2019-04-16T20:17:52.487Z,8.21
2019-04-16T20:20:55.395Z,8.15
2019-04-16T20:23:57.565Z,8.10
2019-04-16T20:27:04.886Z,8.03
2019-04-16T20:30:06.234Z,7.96
2019-04-16T20:33:08.498Z,7.89
2019-04-16T20:36:10.458Z,7.84
2019-04-16T20:39:12.322Z,7.80
2019-04-16T20:42:15.833Z,7.73
2019-04-16T20:45:20.134Z,7.67
2019-04-16T20:48:22.083Z,7.61
2019-04-16T20:51:26.535Z,7.54
2019-04-16T20:54:30.629Z,7.50
2019-04-16T20:57:32.665Z,7.44
2019-04-16T21:00:42.286Z,7.38
2019-04-16T21:03:43.905Z,7.36
2019-04-16T21:06:45.880Z,7.32
2019-04-16T21:09:47.832Z,7.25
2019-04-16T21:12:49.805Z,7.21
2019-04-16T21:15:51.743Z,7.19
2019-04-16T21:18:53.656Z,7.15
2019-04-16T21:21:57.952Z,7.07
2019-04-16T21:24:59.620Z,6.99
2019-04-16T21:28:15.631Z,6.97
2019-04-16T21:31:19.346Z,6.97
2019-04-16T21:34:29.648Z,6.95
2019-04-16T21:37:34.488Z,6.89
2019-04-16T21:40:36.522Z,6.84
2019-04-16T21:43:39.713Z,6.78
2019-04-16T21:46:42.350Z,6.76
2019-04-16T21:49:45.759Z,6.70
2019-04-16T21:52:48.242Z,6.65
2019-04-16T21:55:50.183Z,6.59
2019-04-16T21:58:52.203Z,6.54
2019-04-16T22:01:54.523Z,6.50
2019-04-16T22:04:57.537Z,6.43
2019-04-16T22:07:59.576Z,6.39
2019-04-16T22:11:01.798Z,6.36
2019-04-16T22:14:03.856Z,6.30
2019-04-16T22:17:05.824Z,6.27
2019-04-16T22:20:07.929Z,6.23
2019-04-16T22:23:09.931Z,6.21
2019-04-16T22:26:11.880Z,6.17
2019-04-16T22:29:15.645Z,6.13
2019-04-16T22:32:17.727Z,6.12
2019-04-16T22:35:19.824Z,6.12
2019-04-16T22:38:21.812Z,6.09
2019-04-16T22:41:34.596Z,6.03
2019-04-16T22:44:38.336Z,6.01
2019-04-16T22:47:42.099Z,5.95
2019-04-16T22:50:43.997Z,5.90
2019-04-16T22:53:46.485Z,5.84
2019-04-16T22:57:01.921Z,5.80
2019-04-16T23:00:11.751Z,5.76
2019-04-16T23:03:16.634Z,5.69
2019-04-16T23:06:20.076Z,5.65
2019-04-16T23:09:23.906Z,5.61
2019-04-16T23:12:28.045Z,5.60
2019-04-16T23:15:29.638Z,5.61
2019-04-16T23:18:31.529Z,5.60
2019-04-16T23:21:33.398Z,5.60
2019-04-16T23:24:35.435Z,5.60
2019-04-16T23:27:38.191Z,5.64
2019-04-16T23:30:40.956Z,5.68
2019-04-16T23:33:42.896Z,5.70
2019-04-16T23:36:48.571Z,5.71
2019-04-16T23:39:48.627Z,5.72
2019-04-16T23:42:54.876Z,5.74
2019-04-16T23:46:15.478Z,5.81
2019-04-16T23:49:34.719Z,5.88
2019-04-16T23:52:38.480Z,5.92
2019-04-16T23:56:00.331Z,5.95
2019-04-16T23:59:13.410Z,6.02
